LLUVIA / DATOS DE TEMPERATURA

Agosto 2005

Fecha / Hora Temperatura (*F) Dew Point (*F) Humedad Relativa (%)
08/01/05 00:04 78.01 59.02 52.1
08/01/05 00:34 78.01 60.12 54.2
08/01/05 01:04 77.31 59.74 54.7
08/01/05 01:34 77.31 60.04 55.3
08/01/05 02:04 77.31 60.54 56.3
08/01/05 02:34 77.31 59.74 54.7
08/01/05 03:04 75.92 60.76 59.4
08/01/05 03:34 75.22 60.86 61
08/01/05 04:04 75.22 61.08 61.5
08/01/05 04:34 74.53 61.34 63.5
08/01/05 05:04 73.84 61.38 65.1
08/01/05 05:34 73.84 61.38 65.1
08/01/05 06:04 73.15 60.02 63.5
08/01/05 06:34 72.46 59.86 64.6
08/01/05 07:04 72.46 59.38 63.5
08/01/05 07:34 72.46 60.08 65.1
08/01/05 08:04 73.84 59.28 60.4
08/01/05 08:34 76.62 58.58 53.7
08/01/05 09:04 82.24 60.3 47.5
08/01/05 09:34 83.67 60.02 44.9
08/01/05 10:04 85.1 58.96 41.3
08/01/05 10:34 88.01 58.32 36.8
08/01/05 11:04 89.48 57.24 33.8
08/01/05 11:34 90.96 58.54 33.8
08/01/05 12:04 93.21 57.16 30
08/01/05 12:34 94.73 55.64 27.1
08/01/05 13:04 96.26 53.48 23.9
08/01/05 13:34 96.26 55.04 25.3
08/01/05 14:04 98.6 54.38 23
08/01/05 14:34 99.39 53.44 21.7
08/01/05 15:04 99.39 53.94 22.1
08/01/05 15:34 98.6 53.9 22.6
08/01/05 16:04 96.26 56.54 26.7
08/01/05 16:34 95.49 54.84 25.7
08/01/05 17:04 95.49 55.88 26.7
08/01/05 17:34 93.97 55 27.1
08/01/05 18:04 92.46 56.88 30.4
08/01/05 18:34 93.21 54.86 27.6
08/01/05 19:04 90.22 57.48 33.3
08/01/05 19:34 89.48 58.06 34.8
08/01/05 20:04 87.28 57.68 36.8
08/01/05 20:34 85.1 58.96 41.3
08/01/05 21:04 84.38 58.98 42.3
08/01/05 21:34 82.95 57.7 42.3
08/01/05 22:04 82.24 58.4 44.4
08/01/05 22:34 81.53 58.7 45.9
08/01/05 23:04 80.82 59 47.5
08/01/05 23:34 80.12 60.14 50.6
08/02/05 00:04 79.41 60.32 52.1
08/02/05 00:34 78.71 60.26 53.2
08/02/05 01:04 78.01 60.94 55.8
08/02/05 01:34 78.01 61.7 57.3
08/02/05 02:04 77.31 61.34 57.9
08/02/05 02:34 77.31 62.54 60.4
08/02/05 03:04 75.92 60.04 57.9
08/02/05 03:34 75.92 60.04 57.9
08/02/05 04:04 75.92 61.22 60.4
08/02/05 04:34 75.22 61.54 62.5
08/02/05 05:04 74.53 59.7 59.9
08/02/05 05:34 74.53 60.2 61
08/02/05 06:04 73.84 60.94 64.1
08/02/05 06:34 73.15 60.94 65.6
08/02/05 07:04 72.46 61.34 68.1
08/02/05 07:34 73.15 62.42 69.1
08/02/05 08:04 73.84 59.04 59.9
08/02/05 08:34 79.41 59.5 50.6
08/02/05 09:04 85.1 55.38 36.3
08/02/05 09:34 87.28 51.14 29
08/02/05 10:04 88.01 52.7 30
08/02/05 10:34 86.55 51.8 30.4
08/02/05 11:04 93.21 52.9 25.7
08/02/05 11:34 93.21 54.36 27.1
08/02/05 12:04 92.46 53.32 26.7
08/02/05 12:34 94.73 50.1 22.1
08/02/05 13:04 94.73 50.1 22.1
08/02/05 13:34 95.49 50.24 21.7
08/02/05 14:04 97.82 49.94 20
08/02/05 14:34 97.04 50.36 20.8
08/02/05 15:04 96.26 50.36 21.3
08/02/05 15:34 98.6 49.34 19.1
08/02/05 16:04 93.97 51.58 23.9
08/02/05 16:34 93.97 50.54 23
08/02/05 17:04 91.71 52.16 26.2
08/02/05 17:34 87.28 54.58 32.9
08/02/05 18:04 83.67 51.02 32.4
08/02/05 18:34 82.24 53.96 37.8
08/02/05 19:04 82.95 52.34 34.8
08/02/05 19:34 85.1 49.28 29
08/02/05 20:04 83.67 52.18 33.8
08/02/05 20:34 81.53 51.1 34.8
08/02/05 21:04 80.12 51 36.3
08/02/05 21:34 78.71 51.9 39.3
08/02/05 22:04 77.31 48.88 36.8
08/02/05 22:34 76.62 47.54 35.8
08/02/05 23:04 75.92 44.3 32.4
08/02/05 23:34 75.22 42.46 30.9
08/03/05 00:04 74.53 44.96 34.8
08/03/05 00:34 74.53 44.96 34.8
08/03/05 01:04 73.84 45.46 36.3
08/03/05 01:34 73.15 46.26 38.3
08/03/05 02:04 73.15 45.2 36.8
08/03/05 02:34 72.46 45.3 37.8
08/03/05 03:04 71.77 45.38 38.8
08/03/05 03:34 71.08 43.38 36.8
08/03/05 04:04 71.77 43.62 36.3
08/03/05 04:34 71.08 43.38 36.8
08/03/05 05:04 69.71 43.54 38.8
08/03/05 05:34 69.71 47.08 44.4
08/03/05 06:04 69.02 48.26 47.5
08/03/05 06:34 68.33 49.58 51.1
08/03/05 07:04 68.33 50.4 52.7
08/03/05 07:34 69.02 51.8 54.2
08/03/05 08:04 70.39 47.4 43.9
08/03/05 08:34 74.53 52.64 46.4
08/03/05 09:04 79.41 56.16 44.9
08/03/05 09:34 82.95 50.82 32.9
08/03/05 10:04 83.67 50.18 31.4
08/03/05 10:34 85.1 49.28 29
08/03/05 11:04 86.55 50.52 29
08/03/05 11:34 88.01 49.94 27.1
08/03/05 12:04 90.96 51.54 26.2
08/03/05 12:34 93.97 49.46 22.1
08/03/05 13:04 94.73 47.42 20
08/03/05 13:34 93.97 48.98 21.7
08/03/05 14:04 94.73 48.48 20.8
08/03/05 14:34 97.04 48.64 19.5
08/03/05 15:04 94.73 47.96 20.4
08/03/05 15:34 97.04 46.94 18.3
08/03/05 16:04 95.49 47.38 19.5
08/03/05 16:34 94.73 49.1 21.3
08/03/05 17:04 93.97 48.98 21.7
08/03/05 17:34 92.46 48.22 22.1
08/03/05 18:04 92.46 46.6 20.8
08/03/05 18:34 90.22 46.36 22.1
08/03/05 19:04 89.48 45.28 21.7
08/03/05 19:34 87.28 46.96 24.8
08/03/05 20:04 84.38 47.84 28.1
08/03/05 20:34 81.53 48.76 31.9
08/03/05 21:04 80.12 50.24 35.3
08/03/05 21:34 78.71 49.76 36.3
08/03/05 22:04 78.01 49.5 36.8
08/03/05 22:34 76.62 50.02 39.3
08/03/05 23:04 75.92 50.08 40.3
08/03/05 23:34 75.22 50.44 41.8
08/04/05 00:04 75.22 50.76 42.3
08/04/05 00:34 73.84 49.9 42.9
08/04/05 01:04 73.84 50.82 44.4
08/04/05 01:34 73.15 50.5 44.9
08/04/05 02:04 72.46 50.76 46.4
08/04/05 02:34 72.46 51.1 47
08/04/05 03:04 72.46 51.1 47
08/04/05 03:34 71.77 51.04 48
08/04/05 04:04 71.08 51.84 50.6
08/04/05 04:34 70.39 52.56 53.2
08/04/05 05:04 71.08 51.56 50.1
08/04/05 05:34 71.08 51.24 49.5
08/04/05 06:04 69.71 52.44 54.2
08/04/05 06:34 69.02 52.58 55.8
08/04/05 07:04 69.02 51.54 53.7
08/04/05 07:34 69.02 51.8 54.2
08/04/05 08:04 70.39 52.56 53.2
08/04/05 08:34 73.84 46.18 37.3
08/04/05 09:04 80.82 40.58 23.9
08/04/05 09:34 85.1 42.72 22.6
08/04/05 10:04 85.83 44.78 23.9
08/04/05 10:34 86.55 46.36 24.8
08/04/05 11:04 89.48 45.28 21.7
08/04/05 11:34 90.96 44.86 20.4
08/04/05 12:04 91.71 45.48 20.4
08/04/05 12:34 93.21 44.98 19.1
08/04/05 13:04 96.26 42.48 15.8
08/04/05 13:34 95.49 43.14 16.6
08/04/05 14:04 98.6 42.26 14.6
08/04/05 14:34 100.18 41.48 13.5
08/04/05 15:04 97.82 42.36 15
08/04/05 15:34 99.39 42.88 14.6
08/04/05 16:04 98.6 42.26 14.6
08/04/05 16:34 99.39 40.08 13.1
08/04/05 17:04 97.04 39.04 13.5
08/04/05 17:34 96.26 39.9 14.3
08/04/05 18:04 93.97 40.66 15.8
08/04/05 18:34 93.97 38.62 14.6
08/04/05 19:04 92.46 38.8 15.4
08/04/05 19:34 90.22 39.54 17
08/04/05 20:04 88.01 42.44 20.4
08/04/05 20:34 85.1 44.72 24.4
08/04/05 21:04 82.95 44.26 25.7
08/04/05 21:34 81.53 44.44 27.1
08/04/05 22:04 80.82 45.16 28.5
08/04/05 22:34 79.41 45.3 30
08/04/05 23:04 78.71 46.32 31.9
08/04/05 23:34 78.01 46.52 32.9
08/05/05 00:04 77.31 46.22 33.3
08/05/05 00:34 76.62 46.02 33.8
08/05/05 01:04 75.92 46.18 34.8
08/05/05 01:34 75.22 45.56 34.8
08/05/05 02:04 75.22 46.32 35.8
08/05/05 02:34 74.53 46.78 37.3
08/05/05 03:04 74.53 46.42 36.8
08/05/05 03:34 73.84 48.22 40.3
08/05/05 04:04 73.15 47.28 39.8
08/05/05 04:34 72.46 47.32 40.8
08/05/05 05:04 73.15 47.28 39.8
08/05/05 05:34 71.77 48.64 43.9
08/05/05 06:04 72.46 48.96 43.4
08/05/05 06:34 72.46 49.26 43.9
08/05/05 07:04 71.77 48.94 44.4
08/05/05 07:34 71.77 49.24 44.9
08/05/05 08:04 71.77 49.24 44.9
08/05/05 08:34 74.53 50.14 42.3
08/05/05 09:04 77.31 49.96 38.3
08/05/05 09:34 81.53 49.58 32.9
08/05/05 10:04 85.1 51 30.9
08/05/05 10:34 88.74 48.72 25.3
08/05/05 11:04 92.46 49.86 23.5
08/05/05 11:34 94.73 49.6 21.7
08/05/05 12:04 95.49 49.74 21.3
08/05/05 12:34 97.04 46.94 18.3
08/05/05 13:04 99.39 49.98 19.1
08/05/05 13:34 103.41 46.76 15
08/05/05 14:04 98.6 49.9 19.5
08/05/05 14:34 99.39 49.98 19.1
08/05/05 15:04 94.73 54.72 26.2
08/05/05 15:34 93.21 52.9 25.7
08/05/05 16:04 94.73 51.76 23.5
08/05/05 16:34 97.04 50.36 20.8
08/05/05 17:04 94.73 50.7 22.6
08/05/05 17:34 93.21 50.48 23.5
08/05/05 18:04 93.21 49.9 23
08/05/05 18:34 92.46 51.3 24.8
08/05/05 19:04 90.22 51.42 26.7
08/05/05 19:34 85.83 53.32 32.9
08/05/05 20:04 85.83 52.48 31.9
08/05/05 20:34 84.38 53.98 35.3
08/05/05 21:04 83.67 54.86 37.3
08/05/05 21:34 82.24 54.68 38.8
08/05/05 22:04 81.53 55.1 40.3
08/05/05 22:34 80.12 54.84 41.8
08/05/05 23:04 78.71 55.22 44.4
08/05/05 23:34 78.01 55.5 45.9
08/06/05 00:04 76.62 55.74 48.5
08/06/05 00:34 75.92 55.68 49.5
08/06/05 01:04 75.92 56.56 51.1
08/06/05 01:34 75.22 56.18 51.6
08/06/05 02:04 74.53 56.38 53.2
08/06/05 02:34 73.84 56.82 55.3
08/06/05 03:04 73.15 56.42 55.8
08/06/05 03:34 72.46 56.8 57.9
08/06/05 04:04 73.15 57.44 57.9
08/06/05 04:34 72.46 57.04 58.4
08/06/05 05:04 75.92 56 50.1
08/06/05 05:34 78.71 62.64 57.9
08/06/05 06:04 78.71 66 65.1
08/06/05 06:34 76.62 64.44 66.1
08/06/05 07:04 77.31 67.46 71.7
08/06/05 07:34 76.62 67.14 72.6
08/06/05 08:04 76.62 65.92 69.6
08/06/05 08:34 77.31 66.18 68.6
08/06/05 09:04 78.71 67.08 67.6
08/06/05 09:34 79.41 66.88 65.6
08/06/05 10:04 82.24 65.94 57.9
08/06/05 10:34 83.67 64.22 52.1
08/06/05 11:04 85.1 61.3 44.9
08/06/05 11:34 90.22 59.1 35.3
08/06/05 12:04 94.73 55.64 27.1
08/06/05 12:34 94.73 53.76 25.3
08/06/05 13:04 94.73 51.18 23
08/06/05 13:34 100.18 48.9 17.9
08/06/05 14:04 102.6 48.16 16.2
08/06/05 14:34 103.41 46.04 14.6
08/06/05 15:04 96.26 61.06 31.4
08/06/05 15:34 76.62 73.36 89.7
08/06/05 16:04 78.71 74.72 87.6
08/06/05 16:34 80.12 70.72 73.1
08/06/05 17:04 80.82 70.4 70.7
08/06/05 17:34 82.24 68.62 63.5
08/06/05 18:04 83.67 68 59.4
08/06/05 18:34 84.38 64.62 51.6
08/06/05 19:04 85.1 63.5 48.5
08/06/05 19:34 83.67 60.64 45.9
08/06/05 20:04 82.95 63.02 51.1
08/06/05 20:34 80.82 66.12 61
08/06/05 21:04 80.12 67.56 65.6
08/06/05 21:34 79.41 68.82 70.1
08/06/05 22:04 78.01 68.88 73.6
08/06/05 22:34 78.01 70.96 79
08/06/05 23:04 76.62 70.78 82.2
08/06/05 23:34 76.62 69.24 78
08/07/05 00:04 75.92 70.1 82.2
08/07/05 00:34 75.92 67.46 75.1
08/07/05 01:04 75.22 67.88 78
08/07/05 01:34 74.53 67.74 79.4
08/07/05 02:04 74.53 67.58 79
08/07/05 02:34 73.15 69.24 87.6
08/07/05 03:04 73.15 68.36 85
08/07/05 03:34 72.46 68.26 86.7
08/07/05 04:04 71.77 69 91
08/07/05 04:34 72.46 68.7 88
08/07/05 05:04 72.46 69.12 89.3
08/07/05 05:34 71.77 68.58 89.7
08/07/05 06:04 71.08 68.96 93
08/07/05 06:34 71.77 68.74 90.2
08/07/05 07:04 71.08 68.32 91
08/07/05 07:34 71.08 68.06 90.2
08/07/05 08:04 72.46 68.26 86.7
08/07/05 08:34 75.22 67.7 77.5
08/07/05 09:04 80.82 64.62 57.9
08/07/05 09:34 84.38 64.62 51.6
08/07/05 10:04 85.83 61.96 44.9
08/07/05 10:34 87.28 57.68 36.8
08/07/05 11:04 88.01 57.56 35.8
08/07/05 11:34 89.48 55.64 31.9
08/07/05 12:04 92.46 54.22 27.6
08/07/05 12:34 90.96 53.82 28.5
08/07/05 13:04 91.71 53.08 27.1
08/07/05 13:34 94.73 52.78 24.4
08/07/05 14:04 97.04 53.68 23.5
08/07/05 14:34 93.97 57.34 29.5
08/07/05 15:04 89.48 60.36 37.8
08/07/05 15:34 91.71 57.56 31.9
08/07/05 16:04 90.22 55.84 31.4
08/07/05 16:34 90.22 53.66 29
08/07/05 17:04 90.22 54.14 29.5
08/07/05 17:34 90.22 55.4 30.9
08/07/05 18:04 88.74 55 31.9
08/07/05 18:34 91.71 51.64 25.7
08/07/05 19:04 88.74 54.14 30.9
08/07/05 19:34 88.01 54.8 32.4
08/07/05 20:04 86.55 55.1 34.3
08/07/05 20:34 84.38 56.22 38.3
08/07/05 21:04 82.24 55.72 40.3
08/07/05 21:34 80.82 57.44 44.9
08/07/05 22:04 79.41 56.78 45.9
08/07/05 22:34 78.01 56.74 48
08/07/05 23:04 77.31 56.38 48.5
08/07/05 23:34 76.62 56.04 49
08/08/05 00:04 76.62 56.64 50.1
08/08/05 00:34 75.92 58.44 54.7
08/08/05 01:04 75.92 55.68 49.5
08/08/05 01:34 75.92 56 50.1
08/08/05 02:04 74.53 57.72 55.8
08/08/05 02:34 73.84 60 62
08/08/05 03:04 74.53 59.22 58.9
08/08/05 03:34 73.84 60 62
08/08/05 04:04 73.15 60.02 63.5
08/08/05 04:34 73.15 60.72 65.1
08/08/05 05:04 72.46 62.16 70.1
08/08/05 05:34 72.46 62.16 70.1
08/08/05 06:04 71.77 63.84 76.1
08/08/05 06:34 71.08 64.74 80.4
08/08/05 07:04 71.08 62.42 74.1
08/08/05 07:34 71.08 60.64 69.6
08/08/05 08:04 73.15 60.5 64.6
08/08/05 08:34 75.92 59.5 56.8
08/08/05 09:04 82.24 59.34 45.9
08/08/05 09:34 85.1 58.62 40.8
08/08/05 10:04 87.28 58.78 38.3
08/08/05 10:34 89.48 59.22 36.3
08/08/05 11:04 92.46 58.66 32.4
08/08/05 11:34 89.48 61.1 38.8
08/08/05 12:04 80.12 64.68 59.4
08/08/05 12:34 73.84 67.74 81.3
08/08/05 13:04 73.84 69.48 86.3
08/08/05 13:34 75.22 70.08 84.1
08/08/05 14:04 77.31 72.28 84.5
08/08/05 14:34 77.31 70.8 80.4
08/08/05 15:04 78.01 70.06 76.6
08/08/05 15:34 79.41 69.48 71.7
08/08/05 16:04 81.53 70.2 68.6
08/08/05 16:34 88.74 62.9 42.3
08/08/05 17:04 92.46 64.1 39.3
08/08/05 17:34 88.01 61.56 41.3
08/08/05 18:04 91.71 60 34.8
08/08/05 18:34 88.74 64.6 44.9
08/08/05 19:04 85.83 62.58 45.9
08/08/05 19:34 82.95 57.7 42.3
08/08/05 20:04 80.12 57.1 45.4
08/08/05 20:34 78.71 58.84 50.6
08/08/05 21:04 76.62 59.08 54.7
08/08/05 21:34 75.22 58.86 56.8
08/08/05 22:04 75.22 60.58 60.4
08/08/05 22:34 74.53 61.82 64.6
08/08/05 23:04 73.84 62.44 67.6
08/08/05 23:34 73.84 63.48 70.1
08/09/05 00:04 73.84 63.08 69.1
08/09/05 00:34 72.46 64.12 75.1
08/09/05 01:04 71.77 65.9 81.8
08/09/05 01:34 71.77 66.22 82.7
08/09/05 02:04 71.08 65.86 83.6
08/09/05 02:34 71.77 67.58 86.7
08/09/05 03:04 71.08 67.78 89.3
08/09/05 03:34 71.08 66.48 85.4
08/09/05 04:04 70.39 66.96 88.9
08/09/05 04:34 71.08 67.22 87.6
08/09/05 05:04 71.08 66.48 85.4
08/09/05 05:34 69.71 66.84 90.6
08/09/05 06:04 69.71 67.34 92.2
08/09/05 06:34 69.71 67.34 92.2
08/09/05 07:04 69.02 67.28 94.2
08/09/05 07:34 69.02 66.66 92.2
08/09/05 08:04 69.71 66.54 89.7
08/09/05 08:34 72.46 62.8 71.7
08/09/05 09:04 76.62 62.62 62
08/09/05 09:34 81.53 59.94 48
08/09/05 10:04 83.67 59.7 44.4
08/09/05 10:34 84.38 57.28 39.8
08/09/05 11:04 85.83 57.5 38.3
08/09/05 11:34 86.55 55.1 34.3
08/09/05 12:04 89.48 54.76 30.9
08/09/05 12:34 90.96 53.82 28.5
08/09/05 13:04 89.48 53.04 29
08/09/05 13:34 91.71 52.68 26.7
08/09/05 14:04 90.96 53.44 28.1
08/09/05 14:34 93.21 51.5 24.4
08/09/05 15:04 90.22 52.32 27.6
08/09/05 15:34 91.71 52.68 26.7
08/09/05 16:04 91.71 53.08 27.1
08/09/05 16:34 93.21 49.9 23
08/09/05 17:04 93.21 49.44 22.6
08/09/05 17:34 91.71 47.6 22.1
08/09/05 18:04 90.96 48.62 23.5
08/09/05 18:34 88.74 48.72 25.3
08/09/05 19:04 86.55 50.06 28.5
08/09/05 19:34 83.67 53.36 35.3
08/09/05 20:04 80.82 53.78 39.3
08/09/05 20:34 78.71 56.44 46.4
08/09/05 21:04 76.62 57.46 51.6
08/09/05 21:34 75.92 57.94 53.7
08/09/05 22:04 75.22 57.8 54.7
08/09/05 22:34 74.53 57.96 56.3
08/09/05 23:04 74.53 57.72 55.8
08/09/05 23:34 74.53 58.44 57.3
08/10/05 00:04 74.53 58.74 57.9
08/10/05 00:34 73.84 58.8 59.4
08/10/05 01:04 73.84 59.78 61.5
08/10/05 01:34 73.15 59.12 61.5
08/10/05 02:04 73.15 60.02 63.5
08/10/05 02:34 73.15 60.02 63.5
08/10/05 03:04 72.46 60.08 65.1
08/10/05 03:34 72.46 60.08 65.1
08/10/05 04:04 71.77 60.26 67.1
08/10/05 04:34 72.46 59.64 64.1
08/10/05 05:04 71.77 59.64 65.6
08/10/05 05:34 71.77 59.84 66.1
08/10/05 06:04 71.08 60.24 68.6
08/10/05 06:34 70.39 60.42 70.7
08/10/05 07:04 69.71 59.76 70.7
08/10/05 07:34 69.71 59.76 70.7
08/10/05 08:04 71.77 58.06 62
08/10/05 08:34 73.15 56.68 56.3
08/10/05 09:04 78.71 57.94 49
08/10/05 09:34 80.82 57.44 44.9
08/10/05 10:04 83.67 56.66 39.8
08/10/05 10:34 84.38 55.86 37.8
08/10/05 11:04 85.83 55.24 35.3
08/10/05 11:34 86.55 52.68 31.4
08/10/05 12:04 91.71 47.6 22.1
08/10/05 12:34 90.22 49.44 24.8
08/10/05 13:04 92.46 43.8 18.7
08/10/05 13:34 96.26 40.44 14.6
08/10/05 14:04 97.04 42.42 15.4
08/10/05 14:34 96.26 42.48 15.8
08/10/05 15:04 94.73 49.1 21.3
08/10/05 15:34 94.73 47.96 20.4
08/10/05 16:04 93.97 47.84 20.8
08/10/05 16:34 93.21 47.86 21.3
08/10/05 17:04 90.22 49.44 24.8
08/10/05 17:34 90.22 49.96 25.3
08/10/05 18:04 88.74 49.66 26.2
08/10/05 18:34 87.28 50.3 28.1
08/10/05 19:04 85.83 51.18 30.4
08/10/05 19:34 83.67 50.18 31.4
08/10/05 20:04 82.24 50.92 33.8
08/10/05 20:34 79.41 53.54 40.8
08/10/05 21:04 78.01 54.9 44.9
08/10/05 21:34 75.92 54.82 48
08/10/05 22:04 75.22 55.04 49.5
08/10/05 22:34 73.84 55.48 52.7
08/10/05 23:04 73.15 55.36 53.7
08/10/05 23:34 72.46 56.28 56.8
08/11/05 00:04 71.77 56.64 58.9
08/11/05 00:34 71.08 56.96 61
08/11/05 01:04 70.39 57.42 63.5
08/11/05 01:34 69.71 57.68 65.6
08/11/05 02:04 69.02 57.66 67.1
08/11/05 02:34 69.02 56.82 65.1
08/11/05 03:04 68.33 57.62 68.6
08/11/05 03:34 68.33 58.02 69.6
08/11/05 04:04 67.65 57.56 70.1
08/11/05 04:34 66.96 59 75.6
08/11/05 05:04 66.96 57.68 72.1
08/11/05 05:34 66.96 56.9 70.1
08/11/05 06:04 66.28 57.78 74.1
08/11/05 06:34 66.28 58.34 75.6
08/11/05 07:04 66.28 59.4 78.5
08/11/05 07:34 65.59 59.4 80.4
08/11/05 08:04 66.28 57.98 74.6
08/11/05 08:34 70.39 56.54 61.5
08/11/05 09:04 75.92 59.26 56.3
08/11/05 09:34 79.41 58.88 49.5
08/11/05 10:04 80.82 56.5 43.4
08/11/05 10:34 82.24 55.04 39.3
08/11/05 11:04 84.38 52.8 33.8
08/11/05 11:34 86.55 49.68 28.1
08/11/05 12:04 88.74 48.72 25.3
08/11/05 12:34 90.22 48.44 23.9
08/11/05 13:04 90.22 51.42 26.7
08/11/05 13:34 90.22 51.42 26.7
08/11/05 14:04 90.96 50.06 24.8
08/11/05 14:34 90.96 51.54 26.2
08/11/05 15:04 92.46 49.86 23.5
08/11/05 15:34 90.96 49.62 24.4
08/11/05 16:04 92.46 47.24 21.3
08/11/05 16:34 90.96 48.04 23
08/11/05 17:04 91.71 47.12 21.7
08/11/05 17:34 90.22 46.96 22.6
08/11/05 18:04 88.74 45.74 22.6
08/11/05 18:34 88.01 45.58 23
08/11/05 19:04 88.01 46.16 23.5
08/11/05 19:34 84.38 51.66 32.4
08/11/05 20:04 81.53 53.34 37.8
08/11/05 20:34 78.01 56.16 47
08/11/05 21:04 76.62 56.92 50.6
08/11/05 21:34 75.22 57.02 53.2
08/11/05 22:04 74.53 57.96 56.3
08/11/05 22:34 73.15 58.4 59.9
08/11/05 23:04 72.46 58.7 62
08/11/05 23:34 71.08 59.2 66.1
08/12/05 00:04 70.39 59.38 68.1
08/12/05 00:34 69.02 59.3 71.2
08/12/05 01:04 68.33 60.14 75.1
08/12/05 01:34 66.96 60.06 78.5
08/12/05 02:04 66.28 60.2 80.8
08/12/05 02:34 65.59 60.02 82.2
08/12/05 03:04 64.91 60 84.1
08/12/05 03:34 64.22 59.62 85
08/12/05 04:04 64.22 60.34 87.2
08/12/05 04:34 63.54 60.2 88.9
08/12/05 05:04 62.85 59.78 89.7
08/12/05 05:34 62.85 60.18 91
08/12/05 06:04 62.17 59.64 91.4
08/12/05 06:34 62.17 60.24 93.4
08/12/05 07:04 61.48 60.04 95
08/12/05 07:34 61.48 60.24 95.7
08/12/05 08:04 61.48 60.12 95.3
08/12/05 08:34 63.54 61.12 91.8
08/12/05 09:04 64.91 60.72 86.3
08/12/05 09:34 69.02 62.88 80.8
08/12/05 10:04 71.08 60.84 70.1
08/12/05 10:34 73.15 59.12 61.5
08/12/05 11:04 75.92 57.94 53.7
08/12/05 11:34 78.01 57.02 48.5
08/12/05 12:04 80.82 54.8 40.8
08/12/05 12:34 82.24 53.6 37.3
08/12/05 13:04 83.67 53.36 35.3
08/12/05 13:34 85.1 53.82 34.3
08/12/05 14:04 85.1 53.82 34.3
08/12/05 14:34 86.55 53.1 31.9
08/12/05 15:04 88.01 51.3 28.5
08/12/05 15:34 88.74 51.06 27.6
08/12/05 16:04 88.01 50.44 27.6
08/12/05 16:34 87.28 49.82 27.6
08/12/05 17:04 87.28 51.14 29
08/12/05 17:34 85.83 51.62 30.9
08/12/05 18:04 84.38 52.8 33.8
08/12/05 18:34 82.24 53.24 36.8
08/12/05 19:04 80.12 53.48 39.8
08/12/05 19:34 76.62 55.74 48.5
08/12/05 20:04 73.84 56 53.7
08/12/05 20:34 71.08 57.18 61.5
08/12/05 21:04 69.02 57.86 67.6
08/12/05 21:34 67.65 58.72 73.1
08/12/05 22:04 66.28 59.22 78
08/12/05 22:34 65.59 59.72 81.3
08/12/05 23:04 64.91 59.7 83.2
08/12/05 23:34 64.22 59.62 85
08/13/05 00:04 63.54 59.24 85.9
08/13/05 00:34 63.54 59.8 87.6
08/13/05 01:04 62.85 59.54 88.9
08/13/05 01:34 62.85 59.78 89.7
08/13/05 02:04 62.85 59.66 89.3
08/13/05 02:34 62.17 59.1 89.7
08/13/05 03:04 62.17 58.86 88.9
08/13/05 03:34 62.17 59.38 90.6
08/13/05 04:04 62.17 59.26 90.2
08/13/05 04:34 62.17 59.26 90.2
08/13/05 05:04 61.48 58.58 90.2
08/13/05 05:34 61.48 58.7 90.6
08/13/05 06:04 61.48 58.58 90.2
08/13/05 06:34 61.48 58.7 90.6
08/13/05 07:04 61.48 58.7 90.6
08/13/05 07:34 61.48 58.06 88.5
08/13/05 08:04 62.17 58.02 86.3
08/13/05 08:34 63.54 58.02 82.2
08/13/05 09:04 63.54 58.18 82.7
08/13/05 09:34 67.65 58.92 73.6
08/13/05 10:04 68.33 58.84 71.7
08/13/05 10:34 70.39 58.12 65.1
08/13/05 11:04 72.46 56.8 57.9
08/13/05 11:34 73.84 56.26 54.2
08/13/05 12:04 77.31 54.26 44.9
08/13/05 12:34 78.01 53.96 43.4
08/13/05 13:04 80.82 53.06 38.3
08/13/05 13:34 82.95 52.34 34.8
08/13/05 14:04 85.83 51.18 30.4
08/13/05 14:34 86.55 50.98 29.5
08/13/05 15:04 85.83 52.48 31.9
08/13/05 15:34 87.28 52.06 30
08/13/05 16:04 87.28 52.86 30.9
08/13/05 16:34 86.55 53.54 32.4
08/13/05 17:04 85.83 52.9 32.4
08/13/05 17:34 86.55 52.24 30.9
08/13/05 18:04 84.38 54.36 35.8
08/13/05 18:34 83.67 52.58 34.3
08/13/05 19:04 81.53 54.74 39.8
08/13/05 19:34 79.41 56.48 45.4
08/13/05 20:04 76.62 56.32 49.5
08/13/05 20:34 73.84 58.1 57.9
08/13/05 21:04 71.77 58.06 62
08/13/05 21:34 69.71 57.68 65.6
08/13/05 22:04 67.65 58.18 71.7
08/13/05 22:34 66.96 58.82 75.1
08/13/05 23:04 66.28 58.86 77
08/13/05 23:34 64.91 58.74 80.4
08/14/05 00:04 64.22 58.54 81.8
08/14/05 00:34 63.54 58.66 84.1
08/14/05 01:04 62.85 58.12 84.5
08/14/05 01:34 62.85 58.7 86.3
08/14/05 02:04 62.17 58.58 88
08/14/05 02:34 61.48 58.44 89.7
08/14/05 03:04 60.8 57.9 90.2
08/14/05 03:34 60.11 57.72 91.8
08/14/05 04:04 60.11 58.08 93
08/14/05 04:34 59.42 57.88 94.6
08/14/05 05:04 58.73 57.4 95.3
08/14/05 05:34 58.73 57.4 95.3
08/14/05 06:04 58.04 56.94 96.1
08/14/05 06:34 57.35 56.56 97.2
08/14/05 07:04 57.35 56.68 97.6
08/14/05 07:34 58.73 58.54 99.3
08/14/05 08:04 59.42 59.02 98.6
08/14/05 08:34 60.11 58.88 95.7
08/14/05 09:04 60.11 58.56 94.6
08/14/05 09:34 62.17 58.16 86.7
08/14/05 10:04 63.54 57.88 81.8
08/14/05 10:34 67.65 58.18 71.7
08/14/05 11:04 70.39 57.2 63
08/14/05 11:34 73.84 54.38 50.6
08/14/05 12:04 76.62 51.68 41.8
08/14/05 12:34 79.41 48.86 34.3
08/14/05 13:04 81.53 47.9 30.9
08/14/05 13:34 84.38 46.86 27.1
08/14/05 14:04 85.83 44.78 23.9
08/14/05 14:34 88.01 42.44 20.4
08/14/05 15:04 89.48 43.66 20.4
08/14/05 15:34 90.22 43.74 20
08/14/05 16:04 90.22 44.26 20.4
08/14/05 16:34 90.22 44.76 20.8
08/14/05 17:04 90.96 45.38 20.8
08/14/05 17:34 89.48 47.38 23.5
08/14/05 18:04 90.22 45.4 21.3
08/14/05 18:34 88.01 46.16 23.5
08/14/05 19:04 85.83 47.2 26.2
08/14/05 19:34 82.24 49.8 32.4
08/14/05 20:04 79.41 51.46 37.8
08/14/05 20:34 75.22 53.62 47
08/14/05 21:04 72.46 53.9 52.1
08/14/05 21:34 70.39 54.58 57.3
08/14/05 22:04 69.02 55.02 61
08/14/05 22:34 67.65 55.52 65.1
08/14/05 23:04 66.28 55.66 68.6
08/14/05 23:34 65.59 56.22 71.7
08/15/05 00:04 64.22 56.36 75.6
08/15/05 00:34 63.54 56.56 78
08/15/05 01:04 62.17 56.38 81.3
08/15/05 01:34 62.17 56.38 81.3
08/15/05 02:04 60.8 56.1 84.5
08/15/05 02:34 60.8 56.4 85.4
08/15/05 03:04 60.11 56.42 87.6
08/15/05 03:34 59.42 56.16 88.9
08/15/05 04:04 59.42 56.4 89.7
08/15/05 04:34 58.04 55.44 91
08/15/05 05:04 58.04 55.68 91.8
08/15/05 05:34 57.35 55.34 93
08/15/05 06:04 56.66 55.14 94.6
08/15/05 06:34 55.28 54.08 95.7
08/15/05 07:04 55.28 54.38 96.8
08/15/05 07:34 55.28 54.38 96.8
08/15/05 08:04 55.97 55.08 96.8
08/15/05 08:34 58.73 56.72 93
08/15/05 09:04 64.22 58.54 81.8
08/15/05 09:34 69.02 57.66 67.1
08/15/05 10:04 71.77 55.14 55.8
08/15/05 10:34 74.53 52.98 47
08/15/05 11:04 75.92 46.92 35.8
08/15/05 11:34 79.41 37.98 22.6
08/15/05 12:04 81.53 33.28 17.5
08/15/05 12:34 85.1 25.4 11.3
08/15/05 13:04 88.74 25.72 10.2
08/15/05 13:34 90.22 20.46 7.8
08/15/05 14:04 90.22 29.32 11.3
08/15/05 14:34 92.46 25.76 9.1
08/15/05 15:04 93.21 29.8 10.5
08/15/05 15:34 93.97 31.3 10.9
08/15/05 16:04 93.21 33.92 12.4
08/15/05 16:34 92.46 35.46 13.5
08/15/05 17:04 93.21 35.3 13.1
08/15/05 17:34 90.22 35.68 14.6
08/15/05 18:04 89.48 35.78 15
08/15/05 18:34 87.28 35.96 16.2
08/15/05 19:04 85.1 34.84 16.6
08/15/05 19:34 82.24 34.98 18.3
08/15/05 20:04 80.12 25.08 13.1
08/15/05 20:34 76.62 28.02 16.6
08/15/05 21:04 73.15 33.72 23.5
08/15/05 21:34 71.08 38.46 30.4
08/15/05 22:04 69.71 42.5 37.3
08/15/05 22:34 68.33 44.94 42.9
08/15/05 23:04 67.65 46.1 45.9
08/15/05 23:34 65.59 45.4 48
08/16/05 00:04 65.59 45.68 48.5
08/16/05 00:34 65.59 46.22 49.5
08/16/05 01:04 64.22 46.6 52.7
08/16/05 01:34 62.85 48.06 58.4
08/16/05 02:04 62.17 48.08 59.9
08/16/05 02:34 62.85 49.44 61.5
08/16/05 03:04 60.11 48.56 65.6
08/16/05 03:34 58.73 48.84 69.6
08/16/05 04:04 58.04 48.36 70.1
08/16/05 04:34 58.04 48.78 71.2
08/16/05 05:04 57.35 48.46 72.1
08/16/05 05:34 58.04 48.96 71.7
08/16/05 06:04 56.66 48.34 73.6
08/16/05 06:34 55.97 48.88 77
08/16/05 07:04 55.97 49.22 78
08/16/05 07:34 55.97 49.22 78
08/16/05 08:04 57.35 49.36 74.6
08/16/05 08:34 60.8 48.6 64.1
08/16/05 09:04 69.02 49.36 49.5
08/16/05 09:34 77.31 42.16 28.5
08/16/05 10:04 80.12 32.7 17.9
08/16/05 10:34 82.24 26 12.7
08/16/05 11:04 84.38 24 10.9
08/16/05 11:34 88.01 8.76 5
08/16/05 12:04 88.74 5.44 4.2
08/16/05 12:34 92.46 6.36 3.9
08/16/05 13:04 93.97 9.02 4.2
08/16/05 13:34 94.73 13.44 5
08/16/05 14:04 94.73 19.48 6.5
08/16/05 14:34 97.82 32.58 10.2
08/16/05 15:04 97.04 33.64 10.9
08/16/05 15:34 94.73 37.24 13.5
08/16/05 16:04 97.04 36.86 12.4
08/16/05 16:34 97.82 35.78 11.6
08/16/05 17:04 95.49 36.28 12.7
08/16/05 17:34 97.04 35.18 11.6
08/16/05 18:04 94.73 35.08 12.4
08/16/05 18:34 92.46 36.2 13.9
08/16/05 19:04 91.71 35.6 13.9
08/16/05 19:34 88.74 37.74 16.6
08/16/05 20:04 85.1 36.74 17.9
08/16/05 20:34 79.41 37.98 22.6
08/16/05 21:04 77.31 38.58 24.8
08/16/05 21:34 75.22 38.22 26.2
08/16/05 22:04 74.53 38.48 27.1
08/16/05 22:34 72.46 37.64 28.1
08/16/05 23:04 71.77 37.84 29
08/16/05 23:34 69.71 40.34 34.3
08/17/05 00:04 68.33 40.24 35.8
08/17/05 00:34 68.33 40.6 36.3
08/17/05 01:04 68.33 39.88 35.3
08/17/05 01:34 66.96 40.42 37.8
08/17/05 02:04 66.28 40.14 38.3
08/17/05 02:34 66.96 39.74 36.8
08/17/05 03:04 64.91 39.92 39.8
08/17/05 03:34 64.22 40.86 42.3
08/17/05 04:04 64.91 39.26 38.8
08/17/05 04:34 63.54 39.94 41.8
08/17/05 05:04 63.54 38.36 39.3
08/17/05 05:34 63.54 40.24 42.3
08/17/05 06:04 61.48 40.48 45.9
08/17/05 06:34 61.48 40.48 45.9
08/17/05 07:04 60.8 41.8 49.5
08/17/05 07:34 60.11 42.5 52.1
08/17/05 08:04 62.17 42.26 48
08/17/05 08:34 64.91 40.86 41.3
08/17/05 09:04 72.46 40.88 31.9
08/17/05 09:34 80.12 35.96 20.4
08/17/05 10:04 83.67 35.58 17.9
08/17/05 10:34 84.38 33.66 16.2
08/17/05 11:04 85.83 32.88 15
08/17/05 11:34 87.28 32.84 14.3
08/17/05 12:04 90.96 32.78 12.7
08/17/05 12:34 92.46 33.94 12.7
08/17/05 13:04 95.49 37.06 13.1
08/17/05 13:34 97.04 37.48 12.7
08/17/05 14:04 95.49 40.52 15
08/17/05 14:34 97.04 41.04 14.6
08/17/05 15:04 95.49 43.14 16.6
08/17/05 15:34 94.73 43.16 17
08/17/05 16:04 97.82 41.66 14.6
08/17/05 16:34 94.73 41.9 16.2
08/17/05 17:04 94.73 41.9 16.2
08/17/05 17:34 94.73 41.26 15.8
08/17/05 18:04 91.71 43.2 18.7
08/17/05 18:34 89.48 40.26 17.9
08/17/05 19:04 88.01 42.96 20.8
08/17/05 19:34 86.55 45.92 24.4
08/17/05 20:04 83.67 44.46 25.3
08/17/05 20:34 80.82 46.08 29.5
08/17/05 21:04 79.41 43.58 28.1
08/17/05 21:34 78.01 41.06 26.7
08/17/05 22:04 76.62 38.9 25.7
08/17/05 22:34 75.22 38.22 26.2
08/17/05 23:04 74.53 38.48 27.1
08/17/05 23:34 73.84 38.82 28.1
08/18/05 00:04 73.15 39.46 29.5
08/18/05 00:34 72.46 40.48 31.4
08/18/05 01:04 71.08 40.78 33.3
08/18/05 01:34 71.08 42.3 35.3
08/18/05 02:04 70.39 42.06 35.8
08/18/05 02:34 70.39 40.18 33.3
08/18/05 03:04 69.02 40.12 34.8
08/18/05 03:34 69.02 40.84 35.8
08/18/05 04:04 69.02 41.9 37.3
08/18/05 04:34 69.02 41.56 36.8
08/18/05 05:04 69.02 43.26 39.3
08/18/05 05:34 67.65 43 40.8
08/18/05 06:04 67.65 42.04 39.3
08/18/05 06:34 66.96 40.42 37.8
08/18/05 07:04 66.28 42.72 42.3
08/18/05 07:34 66.96 40.76 38.3
08/18/05 08:04 68.33 38.76 33.8
08/18/05 08:34 70.39 37.52 30
08/18/05 09:04 75.92 39.28 26.7
08/18/05 09:34 80.82 44.8 28.1
08/18/05 10:04 80.82 50.08 34.3
08/18/05 10:34 83.67 53.36 35.3
08/18/05 11:04 85.1 54.22 34.8
08/18/05 11:34 85.83 51.18 30.4
08/18/05 12:04 88.74 52.86 29.5
08/18/05 12:34 90.96 51.02 25.7
08/18/05 13:04 91.71 49.24 23.5
08/18/05 13:34 91.71 49.24 23.5
08/18/05 14:04 93.97 48.98 21.7
08/18/05 14:34 93.97 48.98 21.7
08/18/05 15:04 94.73 49.6 21.7
08/18/05 15:34 94.73 49.6 21.7
08/18/05 16:04 95.49 48.58 20.4
08/18/05 16:34 93.97 50.54 23
08/18/05 17:04 93.21 50.94 23.9
08/18/05 17:34 91.71 51.22 25.3
08/18/05 18:04 90.22 51.82 27.1
08/18/05 18:34 89.48 52.18 28.1
08/18/05 19:04 88.01 53.06 30.4
08/18/05 19:34 85.83 55.24 35.3
08/18/05 20:04 82.95 56.7 40.8
08/18/05 20:34 80.12 56.8 44.9
08/18/05 21:04 78.71 57.08 47.5
08/18/05 21:34 78.01 58.48 51.1
08/18/05 22:04 76.62 58.58 53.7
08/18/05 22:34 75.92 59 55.8
08/18/05 23:04 75.22 59.86 58.9
08/18/05 23:34 74.53 59.7 59.9
08/19/05 00:04 73.84 60 62
08/19/05 00:34 73.15 60.02 63.5
08/19/05 01:04 72.46 60.28 65.6
08/19/05 01:34 72.46 60.72 66.6
08/19/05 02:04 71.77 60.48 67.6
08/19/05 02:34 71.77 61.3 69.6
08/19/05 03:04 71.08 61.08 70.7
08/19/05 03:34 71.08 61.64 72.1
08/19/05 04:04 70.39 61.56 73.6
08/19/05 04:34 70.39 61.94 74.6
08/19/05 05:04 69.71 61.66 75.6
08/19/05 05:34 69.02 61.52 77
08/19/05 06:04 69.02 61.7 77.5
08/19/05 06:34 68.33 61.9 79.9
08/19/05 07:04 67.65 61.4 80.4
08/19/05 07:34 67.65 62.38 83.2
08/19/05 08:04 69.02 62.74 80.4
08/19/05 08:34 71.77 63.46 75.1
08/19/05 09:04 75.22 63.56 67.1
08/19/05 09:34 79.41 64.26 59.9
08/19/05 10:04 81.53 63.64 54.7
08/19/05 10:34 82.95 61.82 49
08/19/05 11:04 85.1 60.36 43.4
08/19/05 11:34 85.83 57.86 38.8
08/19/05 12:04 88.74 57.4 34.8
08/19/05 12:34 90.96 55.6 30.4
08/19/05 13:04 92.46 54.72 28.1
08/19/05 13:34 93.97 55 27.1
08/19/05 14:04 94.73 54.72 26.2
08/19/05 14:34 95.49 53.42 24.4
08/19/05 15:04 95.49 53.86 24.8
08/19/05 15:34 97.04 51.5 21.7
08/19/05 16:04 97.82 51.64 21.3
08/19/05 16:34 96.26 50.88 21.7
08/19/05 17:04 95.49 52.84 23.9
08/19/05 17:34 94.73 51.18 23
08/19/05 18:04 94.73 51.76 23.5
08/19/05 18:34 91.71 54.08 28.1
08/19/05 19:04 90.22 54.96 30.4
08/19/05 19:34 88.01 57.56 35.8
08/19/05 20:04 84.38 58.66 41.8
08/19/05 20:34 82.24 59.34 45.9
08/19/05 21:04 80.12 59.52 49.5
08/19/05 21:34 78.71 60.26 53.2
08/19/05 22:04 77.31 60.04 55.3
08/19/05 22:34 76.62 60.68 57.9
08/19/05 23:04 75.22 60.34 59.9
08/19/05 23:34 74.53 60.88 62.5
08/20/05 00:04 73.84 61.16 64.6
08/20/05 00:34 73.84 61.82 66.1
08/20/05 01:04 72.46 61.34 68.1
08/20/05 01:34 72.46 61.76 69.1
08/20/05 02:04 71.77 61.74 70.7
08/20/05 02:34 71.77 61.5 70.1
08/20/05 03:04 71.08 61.84 72.6
08/20/05 03:34 70.39 61.56 73.6
08/20/05 04:04 70.39 62.14 75.1
08/20/05 04:34 70.39 62.14 75.1
08/20/05 05:04 69.71 61.84 76.1
08/20/05 05:34 69.71 61.84 76.1
08/20/05 06:04 69.02 61.52 77
08/20/05 06:34 69.71 61.66 75.6
08/20/05 07:04 69.02 61.7 77.5
08/20/05 07:34 69.02 61.36 76.6
08/20/05 08:04 69.71 60.9 73.6
08/20/05 08:34 72.46 61.14 67.6
08/20/05 09:04 78.01 61.44 56.8
08/20/05 09:34 84.38 61.58 46.4
08/20/05 10:04 88.01 59.44 38.3
08/20/05 10:34 90.22 56.28 31.9
08/20/05 11:04 92.46 55.1 28.5
08/20/05 11:34 95.49 51.8 23
08/20/05 12:04 97.82 48.14 18.7
08/20/05 12:34 99.39 47.66 17.5
08/20/05 13:04 100.98 46.88 16.2
08/20/05 13:34 102.6 47.48 15.8
08/20/05 14:04 103.41 46.76 15
08/20/05 14:34 104.23 47.4 15
08/20/05 15:04 104.23 47.4 15
08/20/05 15:34 101.79 48.8 17
08/20/05 16:04 105.06 48.74 15.4
08/20/05 16:34 105.89 47.98 14.6
08/20/05 17:04 103.41 49.46 16.6
08/20/05 17:34 102.6 48.16 16.2
08/20/05 18:04 100.98 47.52 16.6
08/20/05 18:34 100.18 48.28 17.5
08/20/05 19:04 98.6 45.62 16.6
08/20/05 19:34 96.26 49.22 20.4
08/20/05 20:04 93.21 49.9 23
08/20/05 20:34 90.96 49.06 23.9
08/20/05 21:04 88.74 49.14 25.7
08/20/05 21:34 87.28 49.82 27.6
08/20/05 22:04 85.83 50.36 29.5
08/20/05 22:34 84.38 51.24 31.9
08/20/05 23:04 82.95 51.56 33.8
08/20/05 23:34 82.95 51.94 34.3
08/21/05 00:04 82.24 52.1 35.3
08/21/05 00:34 80.12 52.44 38.3
08/21/05 01:04 78.01 52.62 41.3
08/21/05 01:34 78.01 53.64 42.9
08/21/05 02:04 76.62 53.94 45.4
08/21/05 02:34 75.92 53.3 45.4
08/21/05 03:04 75.92 54.54 47.5
08/21/05 03:34 75.92 54.54 47.5
08/21/05 04:04 75.92 55.12 48.5
08/21/05 04:34 74.53 55.28 51.1
08/21/05 05:04 73.84 55.48 52.7
08/21/05 05:34 73.15 54.86 52.7
08/21/05 06:04 74.53 55.82 52.1
08/21/05 06:34 73.15 56.18 55.3
08/21/05 07:04 71.77 56.4 58.4
08/21/05 07:34 72.46 56.52 57.3
08/21/05 08:04 74.53 55.28 51.1
08/21/05 08:34 75.92 55.12 48.5
08/21/05 09:04 80.82 55.14 41.3
08/21/05 09:34 90.22 54.96 30.4
08/21/05 10:04 94.73 50.1 22.1
08/21/05 10:34 99.39 40.86 13.5
08/21/05 11:04 99.39 39.3 12.7
08/21/05 11:34 100.18 37.6 11.6
08/21/05 12:04 102.6 35.16 9.8
08/21/05 12:34 103.41 33.9 9.1
08/21/05 13:04 104.23 34.52 9.1
08/21/05 13:34 105.89 34.9 8.8
08/21/05 14:04 105.89 34.9 8.8
08/21/05 14:34 106.73 34.64 8.5
08/21/05 15:04 106.73 34.64 8.5
08/21/05 15:34 107.58 34.06 8.1
08/21/05 16:04 107.58 34.06 8.1
08/21/05 16:34 109.29 34.36 7.8
08/21/05 17:04 108.43 32.76 7.5
08/21/05 17:34 108.43 31.76 7.2
08/21/05 18:04 105.89 32.84 8.1
08/21/05 18:34 107.58 30.1 6.9
08/21/05 19:04 103.41 34.98 9.5
08/21/05 19:34 101.79 32.7 9.1
08/21/05 20:04 97.82 35.12 11.3
08/21/05 20:34 94.73 35.68 12.7
08/21/05 21:04 91.71 36.32 14.3
08/21/05 21:34 91.71 38.2 15.4
08/21/05 22:04 90.22 40.28 17.5
08/21/05 22:34 88.74 40.8 18.7
08/21/05 23:04 88.01 41.28 19.5
08/21/05 23:34 87.28 41.34 20
08/22/05 00:04 85.83 42.72 22.1
08/22/05 00:34 82.95 43.32 24.8
08/22/05 01:04 81.53 43.56 26.2
08/22/05 01:34 81.53 43.06 25.7
08/22/05 02:04 80.12 43.24 27.1
08/22/05 02:34 78.71 44.26 29.5
08/22/05 03:04 78.01 44.44 30.4
08/22/05 03:34 78.01 44.44 30.4
08/22/05 04:04 78.71 44.26 29.5
08/22/05 04:34 78.01 42.76 28.5
08/22/05 05:04 76.62 42 29
08/22/05 05:34 75.22 42.04 30.4
08/22/05 06:04 76.62 42.46 29.5
08/22/05 06:34 75.92 42.28 30
08/22/05 07:04 75.22 42.88 31.4
08/22/05 07:34 73.84 41.68 31.4
08/22/05 08:04 75.22 42.46 30.9
08/22/05 08:34 76.62 42.46 29.5
08/22/05 09:04 80.82 42.06 25.3
08/22/05 09:34 90.96 42.6 18.7
08/22/05 10:04 94.73 35.68 12.7
08/22/05 10:34 98.6 33.88 10.5
08/22/05 11:04 98.6 33.16 10.2
08/22/05 11:34 100.18 31.52 9.1
08/22/05 12:04 101.79 28.92 7.8
08/22/05 12:34 103.41 25.68 6.5
08/22/05 13:04 105.06 24.52 5.9
08/22/05 13:34 105.89 29.92 7.2
08/22/05 14:04 105.06 32.22 8.1
08/22/05 14:34 104.23 29.72 7.5
08/22/05 15:04 104.23 26.26 6.5
08/22/05 15:34 103.41 27.12 6.9
08/22/05 16:04 104.23 32.82 8.5
08/22/05 16:34 102.6 36.9 10.5
08/22/05 17:04 101.79 36.28 10.5
08/22/05 17:34 100.98 33.18 9.5
08/22/05 18:04 97.82 38.86 13.1
08/22/05 18:34 97.82 37.46 12.4
08/22/05 19:04 97.04 38.26 13.1
08/22/05 19:34 93.97 39.32 15
08/22/05 20:04 89.48 41.4 18.7
08/22/05 20:34 87.28 45.54 23.5
08/22/05 21:04 85.1 46.58 26.2
08/22/05 21:34 82.95 46.6 28.1
08/22/05 22:04 80.82 47.72 31.4
08/22/05 22:34 79.41 48.86 34.3
08/22/05 23:04 78.01 49.5 36.8
08/22/05 23:34 77.31 50.3 38.8
08/23/05 00:04 75.92 50.42 40.8
08/23/05 00:34 75.22 51.14 42.9
08/23/05 01:04 74.53 51.44 44.4
08/23/05 01:34 73.84 52.64 47.5
08/23/05 02:04 72.46 53.1 50.6
08/23/05 02:34 71.77 53 51.6
08/23/05 03:04 71.77 53.84 53.2
08/23/05 03:34 71.08 53.46 53.7
08/23/05 04:04 70.39 53.06 54.2
08/23/05 04:34 70.39 53.32 54.7
08/23/05 05:04 69.02 53.3 57.3
08/23/05 05:34 69.02 54.06 58.9
08/23/05 06:04 68.33 53.18 58.4
08/23/05 06:34 69.02 53.82 58.4
08/23/05 07:04 69.02 53.82 58.4
08/23/05 07:34 69.02 52.58 55.8
08/23/05 08:04 71.08 49.22 45.9
08/23/05 08:34 72.46 42.76 34.3
08/23/05 09:04 77.31 35.66 22.1
08/23/05 09:34 84.38 37.26 18.7
08/23/05 10:04 85.83 32.88 15
08/23/05 10:34 85.83 34.18 15.8
08/23/05 11:04 88.01 35.92 15.8
08/23/05 11:34 90.96 36.94 15
08/23/05 12:04 93.97 36.64 13.5
08/23/05 12:34 94.73 35.68 12.7
08/23/05 13:04 95.49 38.58 13.9
08/23/05 13:34 97.04 39.78 13.9
08/23/05 14:04 96.26 41.12 15
08/23/05 14:34 99.39 42.34 14.3
08/23/05 15:04 97.04 46.36 17.9
08/23/05 15:34 97.82 48.72 19.1
08/23/05 16:04 95.49 49.74 21.3
08/23/05 16:34 93.97 49.46 22.1
08/23/05 17:04 93.97 48.98 21.7
08/23/05 17:34 91.71 51.22 25.3
08/23/05 18:04 91.71 51.64 25.7
08/23/05 18:34 88.74 52.86 29.5
08/23/05 19:04 88.74 52.4 29
08/23/05 19:34 88.01 52.24 29.5
08/23/05 20:04 85.1 51.86 31.9
08/23/05 20:34 83.67 53.36 35.3
08/23/05 21:04 82.24 52.48 35.8
08/23/05 21:34 81.53 51.86 35.8
08/23/05 22:04 80.12 51.72 37.3
08/23/05 22:34 78.71 50.84 37.8
08/23/05 23:04 78.01 51.62 39.8
08/23/05 23:34 77.31 50.98 39.8
08/24/05 00:04 76.62 51.68 41.8
08/24/05 00:34 75.92 51.76 42.9
08/24/05 01:04 75.92 52.08 43.4
08/24/05 01:34 74.53 52.04 45.4
08/24/05 02:04 75.22 52.68 45.4
08/24/05 02:34 75.22 52.38 44.9
08/24/05 03:04 75.92 52.4 43.9
08/24/05 03:34 75.92 52.4 43.9
08/24/05 04:04 75.92 53 44.9
08/24/05 04:34 76.62 52.4 42.9
08/24/05 05:04 75.92 53.3 45.4
08/24/05 05:34 75.22 53.26 46.4
08/24/05 06:04 74.53 54.12 49
08/24/05 06:34 74.53 54.74 50.1
08/24/05 07:04 75.22 55.38 50.1
08/24/05 07:34 76.62 55.46 48
08/24/05 08:04 77.31 55.16 46.4
08/24/05 08:34 78.01 54.6 44.4
08/24/05 09:04 80.82 55.46 41.8
08/24/05 09:34 85.83 59.6 41.3
08/24/05 10:04 87.28 57.68 36.8
08/24/05 10:34 87.28 54.92 33.3
08/24/05 11:04 88.01 53.5 30.9
08/24/05 11:34 90.22 52.8 28.1
08/24/05 12:04 91.71 51.22 25.3
08/24/05 12:34 92.46 51.84 25.3
08/24/05 13:04 96.26 50.36 21.3
08/24/05 13:34 97.82 49.94 20
08/24/05 14:04 98.6 49.9 19.5
08/24/05 14:34 99.39 48.84 18.3
08/24/05 15:04 99.39 48.84 18.3
08/24/05 15:34 99.39 50.54 19.5
08/24/05 16:04 99.39 50.54 19.5
08/24/05 16:34 98.6 49.9 19.5
08/24/05 17:04 97.04 49.32 20
08/24/05 17:34 95.49 51.34 22.6
08/24/05 18:04 94.73 50.1 22.1
08/24/05 18:34 93.97 50.54 23
08/24/05 19:04 92.46 50.88 24.4
08/24/05 19:34 90.22 50.9 26.2
08/24/05 20:04 87.28 53.3 31.4
08/24/05 20:34 85.1 52.7 32.9
08/24/05 21:04 82.95 52.72 35.3
08/24/05 21:34 81.53 50.7 34.3
08/24/05 22:04 80.82 51.98 36.8
08/24/05 22:34 79.41 51.46 37.8
08/24/05 23:04 78.71 51.54 38.8
08/24/05 23:34 78.01 51.62 39.8
08/25/05 00:04 76.62 51.04 40.8
08/25/05 00:34 75.92 51.38 42.3
08/25/05 01:04 75.92 51.76 42.9
08/25/05 01:34 75.22 51.46 43.4
08/25/05 02:04 75.22 52.38 44.9
08/25/05 02:34 74.53 52.04 45.4
08/25/05 03:04 74.53 52.64 46.4
08/25/05 03:34 73.84 52.64 47.5
08/25/05 04:04 73.15 53.14 49.5
08/25/05 04:34 73.15 53.46 50.1
08/25/05 05:04 73.15 54.28 51.6
08/25/05 05:34 72.46 54.22 52.7
08/25/05 06:04 72.46 54.48 53.2
08/25/05 06:34 71.77 54.1 53.7
08/25/05 07:04 71.77 54.9 55.3
08/25/05 07:34 71.77 54.9 55.3
08/25/05 08:04 71.77 54.9 55.3
08/25/05 08:34 73.84 54.9 51.6
08/25/05 09:04 75.92 55.68 49.5
08/25/05 09:34 83.67 59.06 43.4
08/25/05 10:04 85.1 57.58 39.3
08/25/05 10:34 86.55 57.4 37.3
08/25/05 11:04 88.01 55.96 33.8
08/25/05 11:34 89.48 54.32 30.4
08/25/05 12:04 91.71 53.08 27.1
08/25/05 12:34 93.97 52.58 24.8
08/25/05 13:04 97.82 52.14 21.7
08/25/05 13:34 98.6 52.28 21.3
08/25/05 14:04 99.39 53.94 22.1
08/25/05 14:34 98.6 51.12 20.4
08/25/05 15:04 97.04 51 21.3
08/25/05 15:34 97.04 49.84 20.4
08/25/05 16:04 97.82 49.94 20
08/25/05 16:34 97.04 51 21.3
08/25/05 17:04 97.04 52 22.1
08/25/05 17:34 97.04 53.08 23
08/25/05 18:04 93.97 55.5 27.6
08/25/05 18:34 91.71 55.4 29.5
08/25/05 19:04 89.48 57.24 33.8
08/25/05 19:34 87.28 57.68 36.8
08/25/05 20:04 84.38 60.66 44.9
08/25/05 20:34 82.24 61.18 49
08/25/05 21:04 80.12 60.96 52.1
08/25/05 21:34 79.41 61.68 54.7
08/25/05 22:04 78.01 61.2 56.3
08/25/05 22:34 77.31 62.06 59.4
08/25/05 23:04 76.62 62.16 61
08/25/05 23:34 75.92 62.64 63.5
08/26/05 00:04 75.22 62.92 65.6
08/26/05 00:34 75.22 62.92 65.6
08/26/05 01:04 75.22 62.7 65.1
08/26/05 01:34 74.53 62.68 66.6
08/26/05 02:04 74.53 62.46 66.1
08/26/05 02:34 74.53 62.46 66.1
08/26/05 03:04 73.84 62.86 68.6
08/26/05 03:34 73.84 62.24 67.1
08/26/05 04:04 73.15 61.36 66.6
08/26/05 04:34 73.15 61.8 67.6
08/26/05 05:04 73.15 62 68.1
08/26/05 05:34 72.46 61.96 69.6
08/26/05 06:04 72.46 62.16 70.1
08/26/05 06:34 72.46 61.96 69.6
08/26/05 07:04 72.46 61.96 69.6
08/26/05 07:34 73.15 61.8 67.6
08/26/05 08:04 73.84 61.6 65.6
08/26/05 08:34 75.22 60.58 60.4
08/26/05 09:04 78.71 59.66 52.1
08/26/05 09:34 85.83 60.68 42.9
08/26/05 10:04 88.01 59.44 38.3
08/26/05 10:34 89.48 57.24 33.8
08/26/05 11:04 90.96 54.76 29.5
08/26/05 11:34 93.97 53.12 25.3
08/26/05 12:04 97.82 52.14 21.7
08/26/05 12:34 100.18 50.06 18.7
08/26/05 13:04 102.6 48.8 16.6
08/26/05 13:34 102.6 51.42 18.3
08/26/05 14:04 103.41 50.1 17
08/26/05 14:34 107.58 49.3 14.6
08/26/05 15:04 105.89 51.42 16.6
08/26/05 15:34 101.79 48.16 16.6
08/26/05 16:04 102.6 48.16 16.2
08/26/05 16:34 100.98 48.16 17
08/26/05 17:04 100.98 46.22 15.8
08/26/05 17:34 100.98 44.84 15
08/26/05 18:04 100.98 45.54 15.4
08/26/05 18:34 100.18 44.22 15
08/26/05 19:04 98.6 46.26 17
08/26/05 19:34 95.49 47.38 19.5
08/26/05 20:04 90.96 51.02 25.7
08/26/05 20:34 88.74 53.68 30.4
08/26/05 21:04 86.55 53.54 32.4
08/26/05 21:34 85.1 53.42 33.8
08/26/05 22:04 84.38 54.36 35.8
08/26/05 22:34 82.95 54.24 37.3
08/26/05 23:04 82.24 54.32 38.3
08/26/05 23:34 81.53 54.4 39.3
08/27/05 00:04 80.82 54.46 40.3
08/27/05 00:34 80.12 54.5 41.3
08/27/05 01:04 79.41 54.2 41.8
08/27/05 01:34 80.12 54.84 41.8
08/27/05 02:04 78.71 54.6 43.4
08/27/05 02:34 78.71 54.6 43.4
08/27/05 03:04 79.41 54.92 42.9
08/27/05 03:34 79.41 55.22 43.4
08/27/05 04:04 79.41 55.22 43.4
08/27/05 04:34 79.41 55.86 44.4
08/27/05 05:04 79.41 55.54 43.9
08/27/05 05:34 79.41 55.54 43.9
08/27/05 06:04 80.12 55.16 42.3
08/27/05 06:34 79.41 55.54 43.9
08/27/05 07:04 79.41 55.86 44.4
08/27/05 07:34 79.41 55.54 43.9
08/27/05 08:04 80.12 54.84 41.8
08/27/05 08:34 81.53 54.4 39.3
08/27/05 09:04 83.67 54.5 36.8
08/27/05 09:34 88.74 55.86 32.9
08/27/05 10:04 89.48 55.2 31.4
08/27/05 10:34 89.48 54.32 30.4
08/27/05 11:04 91.71 51.64 25.7
08/27/05 11:34 93.97 51.12 23.5
08/27/05 12:04 97.82 49.94 20
08/27/05 12:34 100.98 50.12 18.3
08/27/05 13:04 102.6 48.8 16.6
08/27/05 13:34 105.89 46.68 13.9
08/27/05 14:04 107.58 46.42 13.1
08/27/05 14:34 110.16 45.18 11.6
08/27/05 15:04 108.43 50.7 15
08/27/05 15:34 107.58 48.74 14.3
08/27/05 16:04 102.6 52.58 19.1
08/27/05 16:34 103.41 50.1 17
08/27/05 17:04 103.41 51.48 17.9
08/27/05 17:34 104.23 50.74 17
08/27/05 18:04 100.98 52.52 20
08/27/05 18:34 100.18 50.64 19.1
08/27/05 19:04 98.6 51.12 20.4
08/27/05 19:34 95.49 51.8 23
08/27/05 20:04 93.21 53.44 26.2
08/27/05 20:34 90.96 53.44 28.1
08/27/05 21:04 89.48 54.32 30.4
08/27/05 21:34 87.28 54.58 32.9
08/27/05 22:04 85.83 54.86 34.8
08/27/05 22:34 85.1 55.38 36.3
08/27/05 23:04 82.95 55.32 38.8
08/27/05 23:34 81.53 55.1 40.3
08/28/05 00:04 80.82 55.8 42.3
08/28/05 00:34 80.82 56.5 43.4
08/28/05 01:04 78.71 55.84 45.4
08/28/05 01:34 78.01 56.74 48
08/28/05 02:04 77.31 56.38 48.5
08/28/05 02:34 78.01 56.44 47.5
08/28/05 03:04 77.31 56.96 49.5
08/28/05 03:34 75.22 57.02 53.2
08/28/05 04:04 74.53 57.46 55.3
08/28/05 04:34 73.84 57.8 57.3
08/28/05 05:04 73.15 57.44 57.9
08/28/05 05:34 72.46 57.28 58.9
08/28/05 06:04 71.77 57.6 61
08/28/05 06:34 71.08 57.64 62.5
08/28/05 07:04 71.77 57.6 61
08/28/05 07:34 71.08 57.64 62.5
08/28/05 08:04 72.46 57.52 59.4
08/28/05 08:34 74.53 56.9 54.2
08/28/05 09:04 78.01 56.16 47
08/28/05 09:34 87.28 58.42 37.8
08/28/05 10:04 90.22 56.72 32.4
08/28/05 10:34 90.96 52.94 27.6
08/28/05 11:04 94.73 51.18 23
08/28/05 11:34 97.82 48.72 19.1
08/28/05 12:04 101.79 47.52 16.2
08/28/05 12:34 105.89 34.04 8.5
08/28/05 13:04 106.73 37.46 9.5
08/28/05 13:34 106.73 40.96 10.9
08/28/05 14:04 107.58 42.54 11.3
08/28/05 14:34 109.29 40.14 9.8
08/28/05 15:04 110.16 41.82 10.2
08/28/05 15:34 111.91 42.1 9.8
08/28/05 16:04 112.8 40.84 9.1
08/28/05 16:34 110.16 41.82 10.2
08/28/05 17:04 110.16 42.58 10.5
08/28/05 17:34 102.6 48.16 16.2
08/28/05 18:04 101.79 47.52 16.2
08/28/05 18:34 100.18 46.88 16.6
08/28/05 19:04 97.82 48.72 19.1
08/28/05 19:34 95.49 48.06 20
08/28/05 20:04 92.46 49.28 23
08/28/05 20:34 90.96 49.62 24.4
08/28/05 21:04 89.48 49.34 25.3
08/28/05 21:34 88.01 49.94 27.1
08/28/05 22:04 86.55 50.52 29
08/28/05 22:34 85.1 51 30.9
08/28/05 23:04 84.38 51.24 31.9
08/28/05 23:34 83.67 51.78 33.3
08/29/05 00:04 82.95 51.94 34.3
08/29/05 00:34 82.24 52.1 35.3
08/29/05 01:04 81.53 52.24 36.3
08/29/05 01:34 80.12 52.8 38.8
08/29/05 02:04 80.12 53.82 40.3
08/29/05 02:34 78.71 54.28 42.9
08/29/05 03:04 78.01 54.28 43.9
08/29/05 03:34 77.31 54.26 44.9
08/29/05 04:04 76.62 54.88 47
08/29/05 04:34 76.62 54.88 47
08/29/05 05:04 76.62 54.54 46.4
08/29/05 05:34 76.62 54.54 46.4
08/29/05 06:04 74.53 55.28 51.1
08/29/05 06:34 73.15 54.86 52.7
08/29/05 07:04 72.46 54.98 54.2
08/29/05 07:34 72.46 54.98 54.2
08/29/05 08:04 73.84 55.18 52.1
08/29/05 08:34 76.62 54.54 46.4
08/29/05 09:04 80.12 52.08 37.8
08/29/05 09:34 88.74 55.86 32.9
08/29/05 10:04 90.22 51.42 26.7
08/29/05 10:34 90.96 46.98 22.1
08/29/05 11:04 93.21 44.98 19.1
08/29/05 11:34 95.49 39.3 14.3
08/29/05 12:04 98.6 37.24 12
08/29/05 12:34 100.98 37.54 11.3
08/29/05 13:04 105.06 38.74 10.5
08/29/05 13:34 105.89 37.62 9.8
08/29/05 14:04 106.73 37.46 9.5
08/29/05 14:34 107.58 39.9 10.2
08/29/05 15:04 107.58 40.64 10.5
08/29/05 15:34 109.29 41.92 10.5
08/29/05 16:04 105.89 43.68 12.4
08/29/05 16:34 105.06 45.26 13.5
08/29/05 17:04 104.23 45.38 13.9
08/29/05 17:34 102.6 45.4 14.6
08/29/05 18:04 103.41 43.98 13.5
08/29/05 18:34 100.18 46.88 16.6
08/29/05 19:04 97.82 46.98 17.9
08/29/05 19:34 96.26 47.46 19.1
08/29/05 20:04 92.46 49.86 23.5
08/29/05 20:34 89.48 49.76 25.7
08/29/05 21:04 87.28 50.3 28.1
08/29/05 21:34 85.1 50.56 30.4
08/29/05 22:04 83.67 50.62 31.9
08/29/05 22:34 82.95 51.14 33.3
08/29/05 23:04 82.24 51.72 34.8
08/29/05 23:34 80.12 51 36.3
08/30/05 00:04 80.12 51.72 37.3
08/30/05 00:34 78.71 51.9 39.3
08/30/05 01:04 78.71 52.58 40.3
08/30/05 01:34 77.31 51.98 41.3
08/30/05 02:04 77.31 51.98 41.3
08/30/05 02:34 76.62 51.36 41.3
08/30/05 03:04 76.62 52.4 42.9
08/30/05 03:34 74.53 52.34 45.9
08/30/05 04:04 73.84 52.64 47.5
08/30/05 04:34 72.46 51.68 48
08/30/05 05:04 72.46 52.84 50.1
08/30/05 05:34 71.08 52.36 51.6
08/30/05 06:04 70.39 52.82 53.7
08/30/05 06:34 69.71 52.44 54.2
08/30/05 07:04 69.02 52.58 55.8
08/30/05 07:34 68.33 52.66 57.3
08/30/05 08:04 70.39 54.34 56.8
08/30/05 08:34 71.77 54.1 53.7
08/30/05 09:04 75.22 52.98 45.9
08/30/05 09:34 84.38 53.98 35.3
08/30/05 10:04 85.83 49.06 28.1
08/30/05 10:34 86.55 46.88 25.3
08/30/05 11:04 88.74 46.76 23.5
08/30/05 11:34 90.96 46.5 21.7
08/30/05 12:04 92.46 46.6 20.8
08/30/05 12:34 94.73 48.48 20.8
08/30/05 13:04 96.26 44.38 17
08/30/05 13:34 97.82 43.7 15.8
08/30/05 14:04 98.6 46.26 17
08/30/05 14:34 100.18 46.24 16.2
08/30/05 15:04 100.98 46.88 16.2
08/30/05 15:34 99.39 48.26 17.9
08/30/05 16:04 98.6 50.58 20
08/30/05 16:34 98.6 48.78 18.7
08/30/05 17:04 97.82 48.72 19.1
08/30/05 17:34 97.04 45 17
08/30/05 18:04 97.04 45 17
08/30/05 18:34 97.04 41.74 15
08/30/05 19:04 93.97 44.46 18.3
08/30/05 19:34 90.96 46.5 21.7
08/30/05 20:04 86.55 48.7 27.1
08/30/05 20:34 84.38 49.58 30
08/30/05 21:04 82.24 48.96 31.4
08/30/05 21:34 80.82 50.86 35.3
08/30/05 22:04 79.41 51.1 37.3
08/30/05 22:34 78.01 51.62 39.8
08/30/05 23:04 77.31 51.66 40.8
08/30/05 23:34 76.62 51.04 40.8
08/31/05 00:04 75.22 52.08 44.4
08/31/05 00:34 75.22 52.68 45.4
08/31/05 01:04 74.53 52.34 45.9
08/31/05 01:34 73.15 52.3 48
08/31/05 02:04 72.46 52.5 49.5
08/31/05 02:34 71.08 52.36 51.6
08/31/05 03:04 70.39 53.62 55.3
08/31/05 03:34 69.71 54.46 58.4
08/31/05 04:04 69.02 55.02 61
08/31/05 04:34 68.33 55.26 63
08/31/05 05:04 67.65 54.62 63
08/31/05 05:34 66.96 54.18 63.5
08/31/05 06:04 66.28 55.04 67.1
08/31/05 06:34 65.59 56.02 71.2
08/31/05 07:04 66.28 56.68 71.2
08/31/05 07:34 68.33 53.88 59.9
08/31/05 08:04 67.65 55.52 65.1
08/31/05 08:34 69.02 54.52 59.9
08/31/05 09:04 73.84 44.72 35.3
08/31/05 09:34 80.82 44.8 28.1
08/31/05 10:04 80.82 42.96 26.2
08/31/05 10:34 81.53 43.06 25.7
08/31/05 11:04 82.95 43.86 25.3
08/31/05 11:34 85.83 45.32 24.4
08/31/05 12:04 88.01 41.94 20
08/31/05 12:34 90.22 38.92 16.6
08/31/05 13:04 91.71 36.84 14.6
08/31/05 13:34 93.97 35.88 13.1
08/31/05 14:04 95.49 36.28 12.7
08/31/05 14:34 94.73 37.24 13.5
08/31/05 15:04 97.04 36.86 12.4
08/31/05 15:34 96.26 36.88 12.7
08/31/05 16:04 96.26 37.66 13.1
08/31/05 16:34 97.04 36.86 12.4
08/31/05 17:04 96.26 31.4 10.2
08/31/05 17:34 97.04 29.18 9.1
08/31/05 18:04 94.73 29.26 9.8
08/31/05 18:34 93.97 26.08 8.8
08/31/05 19:04 91.71 31.1 11.6
08/31/05 19:34 89.48 31.04 12.4
08/31/05 20:04 85.83 33.54 15.4
08/31/05 20:34 83.67 38.88 20.4
08/31/05 21:04 81.53 41.72 24.4
08/31/05 21:34 80.12 42.86 26.7
08/31/05 22:04 78.01 43.66 29.5
08/31/05 22:34 76.62 44.5 31.9
08/31/05 23:04 75.92 44.3 32.4
08/31/05 23:34 74.53 44.2 33.8